Time;durP1;ratioP1;P1;durP2;ratioP2;P2;SDS_P1;SDS_P2;PMS_P1;PMS_P2;Temp;Humidity;BMP_temperature;BMP_pressure;BME280_temperature;BME280_humidity;BME280_pressure;Samples;Min_cycle;Max_cycle;Signal;HPM_P1;HPM_P2
2023/06/19 00:05:36;;;;;;;10.15;8.65;;;;;;;22.66;100.00;101595.34;5052938;28;20048;-72
2023/06/19 00:11:23;;;;;;;9.48;8.57;;;;;;;22.67;100.00;101607.41;5052866;28;20108;-72
2023/06/19 00:13:48;;;;;;;9.23;8.32;;;;;;;22.37;100.00;101578.66;5050411;28;20399;-71
2023/06/19 00:16:13;;;;;;;13.02;8.88;;;;;;;22.87;100.00;101657.34;5051980;28;20021;-71
2023/06/19 00:18:42;;;;;;;10.38;9.32;;;;;;;22.38;100.00;101577.75;5050498;28;20025;-74
2023/06/19 00:24:29;;;;;;;9.75;8.75;;;;;;;22.66;100.00;101572.84;5052654;28;20071;-72
2023/06/19 00:26:54;;;;;;;9.95;8.50;;;;;;;22.85;100.00;101638.41;5050589;28;20029;-72
2023/06/19 00:29:19;;;;;;;10.23;8.85;;;;;;;22.89;100.00;101650.31;5050348;28;20480;-72
2023/06/19 00:31:45;;;;;;;11.00;8.93;;;;;;;22.83;100.00;101639.41;5050594;28;20024;-72
2023/06/19 00:34:10;;;;;;;9.35;8.40;;;;;;;22.85;100.00;101637.56;5034087;28;20029;-72
2023/06/19 00:36:40;;;;;;;13.57;9.32;;;;;;;22.57;100.00;101588.00;5050431;28;20082;-72
2023/06/19 00:39:07;;;;;;;10.05;9.05;;;;;;;22.44;100.00;101593.81;5050927;28;20028;-72
2023/06/19 00:41:35;;;;;;;11.02;8.40;;;;;;;22.45;100.00;101597.25;5050710;28;20029;-72
2023/06/19 00:47:22;;;;;;;12.60;8.93;;;;;;;23.01;100.00;101654.00;5052154;28;20098;-72
2023/06/19 00:49:48;;;;;;;12.02;9.50;;;;;;;22.97;100.00;101662.88;5051570;28;20025;-72
2023/06/19 00:52:13;;;;;;;11.18;8.88;;;;;;;22.54;100.00;101627.06;5052115;28;20021;-72
2023/06/19 00:54:39;;;;;;;11.32;8.57;;;;;;;23.02;100.00;101661.72;5051522;28;20111;-72
2023/06/19 00:57:05;;;;;;;10.45;9.23;;;;;;;23.05;100.00;101658.13;5050134;28;20044;-72
2023/06/19 00:59:31;;;;;;;11.48;8.95;;;;;;;22.77;100.00;101618.97;5050793;28;20086;-72
2023/06/19 01:01:56;;;;;;;11.00;8.95;;;;;;;22.82;100.00;101661.91;5051984;28;20490;-72
2023/06/19 01:04:22;;;;;;;10.82;8.65;;;;;;;22.64;100.00;101617.94;5034005;28;20498;-74
2023/06/19 01:10:14;;;;;;;9.57;8.60;;;;;;;23.18;100.00;101641.81;5052156;28;20086;-72
2023/06/19 01:12:52;;;;;;;9.73;8.80;;;;;;;22.74;100.00;101580.25;5049792;28;20091;-71
2023/06/19 01:15:19;;;;;;;10.48;8.88;;;;;;;23.00;100.00;101657.50;5051816;28;20052;-72
2023/06/19 01:17:47;;;;;;;10.93;8.38;;;;;;;22.90;100.00;101640.75;5034149;28;20020;-72
2023/06/19 01:20:13;;;;;;;10.20;8.60;;;;;;;22.90;100.00;101638.16;5051688;28;20367;-72
2023/06/19 01:22:38;;;;;;;11.20;9.00;;;;;;;22.76;100.00;101610.34;5051199;28;20024;-72
2023/06/19 01:25:05;;;;;;;9.70;8.73;;;;;;;23.01;100.00;101659.22;5034305;28;20406;-72
2023/06/19 01:30:55;;;;;;;9.60;8.70;;;;;;;23.19;100.00;101646.06;5055947;28;20445;-72
2023/06/19 01:36:43;;;;;;;9.55;8.65;;;;;;;22.71;100.00;101601.13;5055469;28;20544;-72
2023/06/19 01:39:10;;;;;;;10.10;8.80;;;;;;;22.65;100.00;101630.81;5036888;28;20124;-72
2023/06/19 01:41:37;;;;;;;10.82;9.15;;;;;;;22.96;100.00;101700.13;5037067;28;20098;-74
2023/06/19 01:44:03;;;;;;;10.30;8.65;;;;;;;23.03;100.00;101715.31;5055074;28;20047;-72
2023/06/19 01:49:50;;;;;;;10.00;8.82;;;;;;;22.97;100.00;101648.16;5055441;28;20095;-73
2023/06/19 01:52:15;;;;;;;10.00;9.10;;;;;;;22.81;100.00;101685.34;5054668;28;20415;-72
2023/06/19 01:54:41;;;;;;;9.77;8.88;;;;;;;22.89;100.00;101670.22;5053997;28;20021;-72
2023/06/19 01:57:07;;;;;;;10.30;8.88;;;;;;;22.66;100.00;101684.34;5036904;28;20056;-72
2023/06/19 01:59:33;;;;;;;10.07;9.07;;;;;;;22.85;100.00;101692.06;5053431;28;20025;-72
2023/06/19 02:01:58;;;;;;;10.02;8.82;;;;;;;22.79;100.00;101708.78;5054692;28;20037;-72
2023/06/19 02:04:24;;;;;;;9.38;8.45;;;;;;;22.93;100.00;101698.53;5054504;28;20072;-72
2023/06/19 02:06:49;;;;;;;10.27;8.43;;;;;;;22.44;100.00;101599.00;5053143;28;20124;-72
2023/06/19 02:12:36;;;;;;;9.70;8.75;;;;;;;22.94;100.00;101621.50;5055260;28;20040;-73
2023/06/19 02:15:02;;;;;;;9.30;8.40;;;;;;;23.18;100.00;101687.69;5054001;28;20025;-72
2023/06/19 02:17:27;;;;;;;9.70;8.30;;;;;;;23.01;100.00;101674.78;5054231;28;20024;-72
2023/06/19 02:19:53;;;;;;;9.48;8.55;;;;;;;22.78;100.00;101654.38;5054685;28;20406;-73
2023/06/19 02:25:40;;;;;;;11.43;8.63;;;;;;;22.87;100.00;101646.13;5054813;28;20125;-73
2023/06/19 02:28:05;;;;;;;8.93;8.02;;;;;;;22.36;100.00;101601.16;5053420;28;20029;-72
2023/06/19 02:30:30;;;;;;;9.82;8.30;;;;;;;22.91;100.00;101683.97;5036505;28;20471;-72
2023/06/19 02:32:56;;;;;;;9.18;8.32;;;;;;;23.03;100.00;101717.06;5054202;28;20485;-72
2023/06/19 02:38:43;;;;;;;8.73;7.82;;;;;;;22.36;100.00;101601.16;5054573;28;20039;-72
2023/06/19 02:41:09;;;;;;;9.15;8.05;;;;;;;22.26;100.00;101612.06;5054389;28;20453;-72
2023/06/19 02:43:34;;;;;;;9.15;8.25;;;;;;;22.97;100.00;101740.72;5054072;28;20555;-72
2023/06/19 02:45:59;;;;;;;9.20;8.20;;;;;;;22.23;100.00;101636.38;5054625;28;20036;-73
2023/06/19 02:51:46;;;;;;;8.90;7.85;;;;;;;22.59;100.00;101659.66;5054306;28;20083;-72
2023/06/19 02:54:12;;;;;;;10.82;7.93;;;;;;;22.38;100.00;101650.34;5035847;28;20542;-72
2023/06/19 02:56:38;;;;;;;8.63;7.72;;;;;;;22.91;100.00;101756.63;5035481;28;20037;-72
2023/06/19 02:59:04;;;;;;;9.23;7.90;;;;;;;22.52;100.00;101715.31;5053840;28;20060;-71
2023/06/19 03:04:52;;;;;;;10.18;7.85;;;;;;;22.86;100.00;101714.47;5054199;28;20078;-72
2023/06/19 03:10:39;;;;;;;9.32;8.35;;;;;;;22.30;100.00;101645.53;5053896;28;20040;-72
2023/06/19 03:16:26;;;;;;;10.20;8.85;;;;;;;22.32;100.00;101687.75;5053637;28;20040;-71
2023/06/19 03:18:51;;;;;;;9.43;8.63;;;;;;;22.00;100.00;101722.19;5051980;28;20024;-72
2023/06/19 03:21:19;;;;;;;9.90;8.90;;;;;;;21.99;100.00;101737.78;5051625;28;20025;-72
2023/06/19 03:23:44;;;;;;;10.80;9.73;;;;;;;22.20;100.00;101776.50;5036102;28;20028;-72
2023/06/19 03:29:31;;;;;;;10.20;9.20;;;;;;;21.64;100.00;101682.41;5053710;28;20091;-72
2023/06/19 03:31:56;;;;;;;9.63;8.73;;;;;;;21.91;100.00;101729.53;5051118;28;20029;-70
2023/06/19 03:34:22;;;;;;;9.65;8.65;;;;;;;21.75;100.00;101713.00;5051159;28;20029;-74
2023/06/19 03:36:47;;;;;;;10.52;9.48;;;;;;;22.05;100.00;101758.22;5053251;28;20115;-76
2023/06/19 03:42:34;;;;;;;10.95;9.70;;;;;;;21.91;100.00;101756.28;5053762;28;20032;-73
2023/06/19 03:45:00;;;;;;;10.48;9.57;;;;;;;22.04;100.00;101736.69;5053413;28;20040;-75
2023/06/19 03:47:25;;;;;;;11.48;10.27;;;;;;;22.33;100.00;101793.16;5051201;28;20040;-75
2023/06/19 03:49:51;;;;;;;12.38;10.23;;;;;;;21.99;100.00;101749.00;5051185;28;20025;-73
2023/06/19 03:55:38;;;;;;;11.77;10.70;;;;;;;22.31;100.00;101732.75;5053290;28;20112;-77
2023/06/19 03:58:03;;;;;;;10.73;9.70;;;;;;;21.90;100.00;101695.03;5052917;28;20061;-74
2023/06/19 04:00:29;;;;;;;10.88;9.75;;;;;;;22.20;100.00;101685.78;5053105;28;20029;-75
2023/06/19 04:06:16;;;;;;;10.82;9.45;;;;;;;21.84;100.00;101596.91;5053124;28;20541;-74
2023/06/19 04:08:41;;;;;;;9.38;8.40;;;;;;;22.09;100.00;101658.69;5051108;28;20029;-73
2023/06/19 04:11:07;;;;;;;11.75;9.15;;;;;;;22.30;100.00;101668.03;5051563;28;20029;-75
2023/06/19 04:13:32;;;;;;;9.15;8.35;;;;;;;22.41;100.00;101664.00;5051651;28;20032;-72
2023/06/19 04:19:19;;;;;;;9.23;8.32;;;;;;;22.97;100.00;101678.44;5052663;28;20055;-72
2023/06/19 04:21:45;;;;;;;9.95;8.95;;;;;;;22.99;100.00;101718.13;5050210;28;20527;-72
2023/06/19 04:24:10;;;;;;;9.40;8.50;;;;;;;22.44;100.00;101684.56;5052383;28;20455;-72
2023/06/19 04:26:38;;;;;;;9.27;8.38;;;;;;;23.13;100.00;101731.25;5034024;28;20033;-70
2023/06/19 04:32:28;;;;;;;10.43;7.40;;;;;;;23.21;100.00;101696.16;5052455;28;20102;-72
2023/06/19 04:34:53;;;;;;;9.90;7.70;;;;;;;23.17;100.00;101694.69;5049566;28;20033;-72
2023/06/19 04:37:19;;;;;;;9.30;7.80;;;;;;;23.21;100.00;101662.41;5051616;28;20384;-73
2023/06/19 04:39:48;;;;;;;8.30;7.53;;;;;;;23.48;100.00;101713.81;5034074;28;20032;-74
2023/06/19 04:45:42;;;;;;;8.95;6.93;;;;;;;23.51;100.00;101693.72;5052226;28;20063;-73
2023/06/19 04:48:07;;;;;;;8.20;7.45;;;;;;;23.49;100.00;101669.63;5033627;28;20041;-74
2023/06/19 04:50:33;;;;;;;9.10;7.15;;;;;;;23.80;100.00;101720.72;5052136;28;20094;-73
2023/06/19 04:52:58;;;;;;;7.43;6.80;;;;;;;24.27;100.00;101751.88;5050351;28;20028;-72
2023/06/19 04:58:59;;;;;;;8.98;6.55;;;;;;;24.30;100.00;101733.53;5043544;28;20106;-73
2023/06/19 05:01:28;;;;;;;7.50;6.80;;;;;;;23.48;100.00;101651.50;5055027;28;20483;-73
2023/06/19 05:03:55;;;;;;;10.23;6.70;;;;;;;23.95;100.00;101706.88;5054945;28;20479;-74
2023/06/19 05:09:42;;;;;;;8.43;6.90;;;;;;;24.71;100.00;101724.16;5056413;28;20112;-73
2023/06/19 05:15:29;;;;;;;8.20;6.78;;;;;;;25.35;100.00;101736.81;5056186;28;20051;-73
2023/06/19 05:21:16;;;;;;;7.35;6.65;;;;;;;24.56;100.00;101723.28;5056326;28;20044;-73
2023/06/19 05:23:41;;;;;;;7.18;6.47;;;;;;;24.17;100.00;101743.78;5053795;28;20029;-73
2023/06/19 05:26:07;;;;;;;9.00;6.95;;;;;;;24.65;100.00;101794.78;5055301;28;20468;-73
2023/06/19 05:28:33;;;;;;;10.48;6.60;;;;;;;24.47;100.00;101768.06;5037199;28;20028;-72
2023/06/19 05:30:59;;;;;;;8.57;7.22;;;;;;;24.38;100.00;101783.34;5053878;28;20021;-73
2023/06/19 05:33:24;;;;;;;7.85;7.05;;;;;;;24.33;100.00;101741.16;5037543;28;20036;-73
2023/06/19 05:35:52;;;;;;;7.65;6.63;;;;;;;24.64;100.00;101770.53;5055160;28;20040;-73
2023/06/19 05:38:20;;;;;;;7.07;6.47;;;;;;;24.62;100.00;101738.53;5055385;28;20497;-73
2023/06/19 05:40:46;;;;;;;6.88;6.28;;;;;;;23.97;100.00;101685.06;5053858;28;20032;-73
2023/06/19 05:43:12;;;;;;;7.32;6.25;;;;;;;24.23;100.00;101729.59;5053568;28;20017;-73
2023/06/19 05:45:38;;;;;;;7.50;6.65;;;;;;;25.09;100.00;101764.44;5054941;28;20141;-74
2023/06/19 05:51:25;;;;;;;9.48;6.47;;;;;;;23.79;100.00;101703.47;5055501;28;20086;-74
2023/06/19 05:53:51;;;;;;;8.13;7.00;;;;;;;24.28;100.00;101761.38;5036991;28;20032;-75
2023/06/19 05:56:16;;;;;;;10.48;6.75;;;;;;;24.22;100.00;101749.56;5037273;28;20029;-73
2023/06/19 05:58:41;;;;;;;7.43;6.78;;;;;;;23.99;100.00;101744.75;5036989;28;20114;-73
2023/06/19 06:01:07;;;;;;;7.50;6.80;;;;;;;24.13;100.00;101801.25;5054508;28;20107;-73
2023/06/19 06:03:33;;;;;;;7.88;6.90;;;;;;;24.46;100.00;101782.00;5054846;28;20455;-73
2023/06/19 06:06:03;;;;;;;7.63;6.93;;;;;;;24.95;100.00;101717.56;5036707;28;20043;-72
2023/06/19 06:11:49;;;;;;;7.70;6.40;;;;;;;24.39;100.00;101744.25;5056633;28;20379;-74
2023/06/19 06:14:15;;;;;;;8.43;7.10;;;;;;;24.60;100.00;101731.78;5054817;28;20029;-73
2023/06/19 06:16:40;;;;;;;9.88;8.02;;;;;;;25.49;100.00;101722.03;5053111;28;20024;-75
2023/06/19 06:19:06;;;;;;;8.38;6.80;;;;;;;25.37;100.00;101714.13;5053325;28;20025;-75
2023/06/19 06:21:32;;;;;;;7.35;6.47;;;;;;;25.28;100.00;101725.91;5054524;28;20086;-74
2023/06/19 06:23:57;;;;;;;7.30;6.60;;;;;;;25.70;100.00;101626.03;5054807;28;20025;-74
2023/06/19 06:26:22;;;;;;;7.85;7.00;;;;;;;26.01;100.00;101648.34;5054370;28;20064;-73
2023/06/19 06:28:48;;;;;;;8.30;6.80;;;;;;;26.39;100.00;101639.66;5054102;28;20037;-73
2023/06/19 06:31:13;;;;;;;6.80;6.15;;;;;;;26.31;100.00;101662.81;5054701;28;20061;-73
2023/06/19 06:33:39;;;;;;;8.35;7.50;;;;;;;26.03;100.00;101542.16;5054374;28;20052;-73
2023/06/19 06:36:04;;;;;;;7.30;6.53;;;;;;;26.20;100.00;101581.00;5054415;28;20078;-73
2023/06/19 06:41:51;;;;;;;6.90;6.28;;;;;;;26.19;100.00;101415.00;5054536;28;20496;-74
2023/06/19 06:44:17;;;;;;;6.97;6.18;;;;;;;26.99;100.00;101453.63;5053722;28;20025;-75
2023/06/19 06:46:42;;;;;;;7.28;5.97;;;;;;;27.12;100.00;101395.13;5053743;28;20043;-74
2023/06/19 06:49:08;;;;;;;12.00;8.07;;;;;;;26.36;100.00;101256.34;5053885;28;20033;-74
2023/06/19 06:51:33;;;;;;;7.13;6.45;;;;;;;26.85;100.00;101287.53;5053684;28;20021;-73
2023/06/19 06:53:58;;;;;;;9.88;6.60;;;;;;;26.95;100.00;101283.28;5035474;28;20553;-73
2023/06/19 06:56:24;;;;;;;7.43;6.50;;;;;;;26.89;100.00;101283.72;5053718;28;20467;-72
2023/06/19 06:58:49;;;;;;;7.43;6.25;;;;;;;26.21;100.00;101347.91;5053437;28;20060;-73
2023/06/19 07:01:15;;;;;;;6.95;6.30;;;;;;;26.46;100.00;101324.34;5052384;28;20021;-73
2023/06/19 07:03:40;;;;;;;7.05;5.82;;;;;;;26.18;100.00;101395.09;5052248;28;20082;-73
2023/06/19 07:06:06;;;;;;;6.85;5.60;;;;;;;26.19;100.00;101469.78;5052002;28;20028;-73
2023/06/19 07:08:32;;;;;;;7.50;5.78;;;;;;;26.73;100.00;101585.19;5053593;28;20090;-73
2023/06/19 07:14:19;;;;;;;6.50;5.90;;;;;;;27.18;100.00;101554.06;5058803;28;20032;-73
2023/06/19 07:16:46;;;;;;;6.80;6.10;;;;;;;27.19;100.00;101442.56;5060606;28;20124;-72
2023/06/19 07:19:12;;;;;;;6.55;5.75;;;;;;;26.95;100.00;101312.00;5056800;28;20123;-73
2023/06/19 07:21:38;;;;;;;14.38;6.25;;;;;;;26.97;100.00;101127.31;5053790;28;20102;-72
2023/06/19 07:27:27;;;;;;;6.43;5.82;;;;;;;27.49;100.00;100822.69;5053722;28;20035;-72
2023/06/19 07:29:53;;;;;;;6.55;5.65;;;;;;;26.48;100.00;100654.50;5053345;28;20025;-72
2023/06/19 07:32:19;;;;;;;7.53;5.78;;;;;;;26.70;100.00;100615.22;5053563;28;20106;-73
2023/06/19 07:34:45;;;;;;;7.10;5.80;;;;;;;27.24;100.00;100461.63;5051595;28;20029;-73
2023/06/19 07:37:17;;;;;;;7.78;5.65;;;;;;;27.51;100.00;100321.66;5052023;28;20044;-73
2023/06/19 07:39:44;;;;;;;5.55;5.03;;;;;;;27.06;100.00;100036.81;5052830;28;20372;-73
2023/06/19 07:42:10;;;;;;;6.20;5.60;;;;;;;27.57;100.00;99874.25;5052033;28;20020;-73
2023/06/19 07:44:35;;;;;;;5.90;5.30;;;;;;;28.05;100.00;99545.88;5051567;28;20017;-73
2023/06/19 07:50:23;;;;;;;6.68;5.45;;;;;;;28.56;100.00;99256.84;5053100;28;20538;-72
2023/06/19 07:56:10;;;;;;;;;;;;;;;28.97;100.00;98949.19;5053171;28;20243;-72
2023/06/19 07:58:35;;;;;;;5.83;5.33;;;;;;;28.53;100.00;98835.91;5052451;28;19912;-72
2023/06/19 08:01:00;;;;;;;5.82;5.25;;;;;;;28.09;100.00;98632.09;5051088;28;20848;-72
2023/06/19 08:03:27;;;;;;;6.13;5.53;;;;;;;28.84;100.00;98558.22;5051277;28;20059;-72
2023/06/19 08:09:13;;;;;;;;;;;;;;;27.72;100.00;98428.50;5052938;28;20032;-72
2023/06/19 08:11:39;;;;;;;7.87;5.43;;;;;;;27.51;100.00;98407.66;5034301;28;19908;-72
2023/06/19 08:14:04;;;;;;;6.45;5.32;;;;;;;28.57;100.00;98347.16;5052209;28;20107;-72
2023/06/19 08:16:31;;;;;;;5.72;5.05;;;;;;;28.26;100.00;98146.31;5052014;28;20029;-72
2023/06/19 08:18:56;;;;;;;5.63;5.13;;;;;;;27.20;100.00;98152.13;5052345;28;20052;-72
2023/06/19 08:21:22;;;;;;;5.68;4.90;;;;;;;27.59;100.00;98128.06;5050747;28;20120;-73
2023/06/19 08:23:48;;;;;;;7.55;5.35;;;;;;;27.13;100.00;98195.69;5050749;28;20493;-73
2023/06/19 08:26:13;;;;;;;8.85;5.20;;;;;;;27.21;100.00;98140.72;5050360;28;20083;-72
2023/06/19 08:32:01;;;;;;;7.30;5.53;;;;;;;28.21;100.00;98004.91;5052808;28;20090;-72
2023/06/19 08:37:48;;;;;;;;;;;;;;;28.08;100.00;97997.91;5052688;28;20526;-71
2023/06/19 08:40:14;;;;;;;7.77;6.20;;;;;;;27.06;100.00;98167.91;5052004;28;19943;-71
2023/06/19 08:42:39;;;;;;;6.15;5.55;;;;;;;27.22;100.00;98298.94;5034106;28;20275;-74
2023/06/19 08:45:06;;;;;;;7.60;5.53;;;;;;;27.05;100.00;98320.28;5051813;28;20429;-73
2023/06/19 08:50:55;;;;;;;6.47;5.63;;;;;;;26.97;100.00;98414.34;5051900;28;20028;-73
2023/06/19 08:53:20;;;;;;;6.22;5.13;;;;;;;27.38;100.00;98441.47;5033446;28;20131;-73
2023/06/19 08:55:45;;;;;;;7.53;5.40;;;;;;;27.66;100.00;98399.72;5051044;28;20111;-74
2023/06/19 08:58:11;;;;;;;7.05;5.68;;;;;;;27.33;100.00;98421.16;5051249;28;20064;-73
2023/06/19 09:00:37;;;;;;;7.30;5.43;;;;;;;27.32;100.00;98432.56;5032989;28;20025;-74
2023/06/19 09:03:03;;;;;;;7.55;5.65;;;;;;;27.38;100.00;98340.44;5033835;28;20036;-74
2023/06/19 09:05:29;;;;;;;7.43;5.68;;;;;;;28.05;100.00;98350.34;5050530;28;20025;-74
2023/06/19 09:08:00;;;;;;;7.40;5.57;;;;;;;28.19;100.00;98187.31;5051532;28;20031;-73
2023/06/19 09:10:26;;;;;;;8.13;6.00;;;;;;;27.88;100.00;98067.63;5047432;28;20055;-73
2023/06/19 09:13:03;;;;;;;6.45;5.85;;;;;;;27.58;100.00;98089.06;5051485;28;20029;-74
2023/06/19 09:15:34;;;;;;;6.63;5.90;;;;;;;27.36;100.00;97880.34;5051894;28;20132;-72
2023/06/19 09:18:03;;;;;;;8.50;6.38;;;;;;;27.96;100.00;97628.47;5050333;28;20463;-75
2023/06/19 09:20:29;;;;;;;6.65;5.80;;;;;;;27.91;100.00;97441.97;5051932;28;20514;-72
2023/06/19 09:26:18;;;;;;;8.18;5.50;;;;;;;27.83;100.00;97027.72;5051868;28;20032;-73
2023/06/19 09:28:45;;;;;;;6.28;5.68;;;;;;;27.54;100.00;97074.75;5051242;28;20028;-74
2023/06/19 09:31:11;;;;;;;6.60;5.60;;;;;;;27.93;100.00;96866.00;5049961;28;20035;-73
2023/06/19 09:33:37;;;;;;;6.38;5.88;;;;;;;28.21;100.00;96534.22;5050173;28;20029;-73
2023/06/19 09:36:05;;;;;;;6.28;5.68;;;;;;;27.72;100.00;96481.94;5050165;28;20040;-73
2023/06/19 09:38:38;;;;;;;6.93;5.88;;;;;;;27.00;100.00;96368.78;5050343;28;20032;-74
2023/06/19 09:41:04;;;;;;;6.15;5.55;;;;;;;28.28;100.00;95907.69;5050937;28;20141;-73
2023/06/19 09:46:54;;;;;;;5.93;4.50;;;;;;;27.59;100.00;95227.66;5053525;28;20047;-74
2023/06/19 09:49:27;;;;;;;4.45;4.03;;;;;;;28.54;100.00;95131.53;5054858;28;20090;-74
2023/06/19 09:51:52;;;;;;;6.75;5.40;;;;;;;27.10;100.00;95098.91;5055399;28;20032;-70
2023/06/19 09:54:19;;;;;;;6.20;5.38;;;;;;;27.76;100.00;95121.06;5054623;28;20033;-70
2023/06/19 09:56:50;;;;;;;7.15;5.90;;;;;;;29.22;100.00;94944.59;5054864;28;20029;-72
2023/06/19 09:59:15;;;;;;;7.60;5.15;;;;;;;28.34;100.00;95068.97;5055424;28;20448;-74
2023/06/19 10:05:02;;;;;;;;;;;;;;;28.30;100.00;95066.16;5055501;28;20544;-71
2023/06/19 10:07:34;;;;;;;5.13;4.60;;;;;;;28.02;100.00;95079.94;5036454;28;19908;-72
2023/06/19 10:10:06;;;;;;;5.50;4.95;;;;;;;29.37;100.00;94876.38;5054563;28;20117;-71
2023/06/19 10:12:45;;;;;;;6.43;5.05;;;;;;;30.25;100.00;94863.00;5048289;28;20376;-71
2023/06/19 10:15:22;;;;;;;5.45;4.95;;;;;;;29.58;100.00;94945.63;5053387;28;20025;-71
2023/06/19 10:17:52;;;;;;;7.55;4.90;;;;;;;28.36;100.00;94869.09;5054963;28;20035;-71
2023/06/19 10:20:33;;;;;;;6.65;5.15;;;;;;;29.40;100.00;94806.97;5053095;28;20455;-72
2023/06/19 10:23:04;;;;;;;5.45;4.95;;;;;;;28.81;100.00;94816.25;5054664;28;20029;-71
2023/06/19 10:28:33;;;;;;;5.40;4.82;;;;;;;29.44;100.00;94612.44;5054286;28;19927;-72
2023/06/19 10:31:01;;;;;;;6.15;5.13;;;;;;;29.40;100.00;94568.84;5052719;28;20463;-72
2023/06/19 10:33:30;;;;;;;5.35;4.90;;;;;;;28.76;100.00;94564.59;5054414;28;20025;-72
2023/06/19 10:35:55;;;;;;;6.05;5.45;;;;;;;29.47;100.00;94331.88;5052889;28;20032;-72
2023/06/19 10:38:21;;;;;;;6.13;5.43;;;;;;;28.70;100.00;94417.53;5052051;28;20120;-72
2023/06/19 10:40:47;;;;;;;6.88;5.30;;;;;;;29.14;100.00;94468.44;5052871;28;20419;-72
2023/06/19 10:43:20;;;;;;;6.75;5.55;;;;;;;28.69;100.00;94425.69;5054265;28;20028;-72
2023/06/19 10:49:10;;;;;;;;;;;;;;;28.83;100.00;94539.63;5054277;28;20028;-71
2023/06/19 10:51:37;;;;;;;8.00;5.05;;;;;;;29.27;100.00;94472.84;5052517;28;19916;-72
2023/06/19 10:54:02;;;;;;;5.50;5.00;;;;;;;29.88;100.00;94507.06;5052807;28;20029;-71
2023/06/19 10:56:28;;;;;;;5.68;5.15;;;;;;;29.36;100.00;94649.75;5052151;28;20055;-72
2023/06/19 10:59:05;;;;;;;5.82;5.32;;;;;;;29.66;100.00;94759.13;5051256;28;20051;-72
2023/06/19 11:01:33;;;;;;;6.55;5.18;;;;;;;30.23;100.00;94692.22;5053863;28;20040;-71
2023/06/19 11:03:58;;;;;;;7.05;6.35;;;;;;;30.17;100.00;95421.81;5052075;28;20040;-72
2023/06/19 11:06:24;;;;;;;6.28;5.32;;;;;;;28.98;100.00;96147.84;5051698;28;20025;-72
2023/06/19 11:08:52;;;;;;;5.80;5.30;;;;;;;30.52;100.00;96320.94;5053080;28;20033;-71
2023/06/19 11:11:20;;;;;;;5.72;5.13;;;;;;;29.75;100.00;96679.72;5053360;28;20036;-71
2023/06/19 11:17:07;;;;;;;6.20;5.10;;;;;;;30.14;100.00;97183.75;5053503;28;20059;-71
2023/06/19 11:19:35;;;;;;;5.63;5.13;;;;;;;29.98;100.00;97147.81;5051789;28;20029;-71
2023/06/19 11:22:03;;;;;;;6.07;5.03;;;;;;;30.82;100.00;97180.16;5035101;28;20029;-71
2023/06/19 11:24:29;;;;;;;6.10;5.50;;;;;;;30.76;100.00;97316.53;5053039;28;20111;-71
2023/06/19 11:26:58;;;;;;;6.30;5.20;;;;;;;30.04;100.00;97402.94;5051684;28;20029;-71
2023/06/19 11:29:26;;;;;;;5.68;5.18;;;;;;;30.55;100.00;96965.69;5053040;28;20506;-71
2023/06/19 11:35:16;;;;;;;6.03;5.43;;;;;;;30.83;100.00;97408.25;5053325;28;20036;-71
2023/06/19 11:37:43;;;;;;;7.70;5.68;;;;;;;30.33;100.00;97480.69;5034946;28;20045;-72
2023/06/19 11:40:12;;;;;;;6.65;5.47;;;;;;;29.69;100.00;97554.91;5053184;28;20021;-72
2023/06/19 11:42:52;;;;;;;6.43;5.40;;;;;;;29.60;100.00;97742.22;5034717;28;20457;-72
2023/06/19 11:45:18;;;;;;;6.05;5.40;;;;;;;30.70;100.00;97699.84;5053450;28;20035;-72
2023/06/19 11:47:47;;;;;;;5.90;5.40;;;;;;;30.40;100.00;97888.78;5056320;28;20032;-72
2023/06/19 11:53:34;;;;;;;5.95;5.45;;;;;;;30.32;100.00;98269.44;5054345;28;20071;-71
2023/06/19 11:56:00;;;;;;;5.80;5.13;;;;;;;31.07;100.00;98344.69;5052432;28;20060;-72
2023/06/19 11:58:25;;;;;;;5.93;5.00;;;;;;;29.77;100.00;98466.66;5051434;28;20049;-73
2023/06/19 12:00:53;;;;;;;7.05;5.05;;;;;;;31.41;100.00;98461.72;5052070;28;20048;-73
2023/06/19 12:06:40;;;;;;;6.35;5.75;;;;;;;30.55;100.00;98781.47;5052515;28;20418;-73
2023/06/19 12:09:05;;;;;;;5.95;5.43;;;;;;;31.30;100.00;98907.25;5051202;28;20032;-74
2023/06/19 12:11:31;;;;;;;6.50;5.30;;;;;;;30.67;100.00;98889.31;5051770;28;20033;-72
2023/06/19 12:13:57;;;;;;;5.85;5.35;;;;;;;30.74;100.00;99124.63;5052541;28;20025;-71
2023/06/19 12:16:23;;;;;;;9.02;7.43;;;;;;;31.29;100.00;99201.78;5052452;28;20084;-71
2023/06/19 12:18:49;;;;;;;6.85;6.20;;;;;;;31.81;100.00;99269.63;5052042;28;20028;-71
2023/06/19 12:21:15;;;;;;;5.70;5.20;;;;;;;31.55;100.00;99363.13;5052085;28;20100;-72
2023/06/19 12:23:40;;;;;;;7.78;5.80;;;;;;;31.00;100.00;99455.00;5052491;28;20031;-71
2023/06/19 12:26:06;;;;;;;6.05;5.45;;;;;;;31.09;100.00;99456.53;5033533;28;20091;-71
2023/06/19 12:28:31;;;;;;;7.88;5.82;;;;;;;30.50;100.00;99476.81;5051780;28;20491;-72
2023/06/19 12:30:58;;;;;;;7.22;5.60;;;;;;;30.65;100.00;99445.28;5052153;28;20037;-73
2023/06/19 12:33:23;;;;;;;6.00;5.40;;;;;;;31.16;100.00;99453.97;5052348;28;20023;-72
2023/06/19 12:35:49;;;;;;;10.60;6.00;;;;;;;31.20;100.00;99552.44;5051743;28;20108;-72
2023/06/19 12:38:14;;;;;;;6.10;5.53;;;;;;;30.60;100.00;99534.28;5051637;28;20383;-72
2023/06/19 12:40:40;;;;;;;7.28;6.05;;;;;;;31.35;100.00;99519.03;5050811;28;20025;-72
2023/06/19 12:46:27;;;;;;;7.05;5.60;;;;;;;30.76;100.00;99657.53;5052263;28;20158;-71
2023/06/19 12:48:53;;;;;;;7.10;5.70;;;;;;;30.61;100.00;99694.25;5050388;28;20024;-71
2023/06/19 12:51:18;;;;;;;7.15;5.82;;;;;;;30.94;100.00;99694.78;5051614;28;20103;-72
2023/06/19 12:53:44;;;;;;;6.35;5.75;;;;;;;30.72;100.00;99738.47;5051875;28;20032;-72
2023/06/19 12:56:09;;;;;;;6.95;6.28;;;;;;;30.44;100.00;99665.72;5033704;28;20032;-71
2023/06/19 12:58:35;;;;;;;7.20;6.30;;;;;;;29.88;100.00;99670.38;5051107;28;20041;-71
2023/06/19 13:01:00;;;;;;;6.82;6.22;;;;;;;30.76;100.00;99687.22;5051278;28;20482;-73
2023/06/19 13:03:26;;;;;;;7.90;6.28;;;;;;;29.83;100.00;99719.09;5049955;28;20087;-71
2023/06/19 13:05:51;;;;;;;7.22;6.38;;;;;;;30.73;100.00;99710.41;5050750;28;20107;-73
2023/06/19 13:08:16;;;;;;;6.65;6.03;;;;;;;30.31;100.00;99692.53;5050001;28;20071;-71
2023/06/19 13:10:42;;;;;;;7.63;6.00;;;;;;;30.62;100.00;99640.75;5050310;28;20028;-73
2023/06/19 13:13:10;;;;;;;6.70;6.10;;;;;;;30.46;100.00;99682.91;5051603;28;20112;-73
2023/06/19 13:15:35;;;;;;;7.22;6.47;;;;;;;30.30;100.00;99760.97;5050093;28;20060;-73
2023/06/19 13:18:01;;;;;;;7.25;6.38;;;;;;;30.65;100.00;99699.97;5051450;28;20438;-73
2023/06/19 13:20:26;;;;;;;7.97;6.45;;;;;;;30.41;100.00;99687.88;5032852;28;20567;-72
2023/06/19 13:22:52;;;;;;;6.90;6.25;;;;;;;29.22;100.00;99725.00;5055192;28;20410;-72
2023/06/19 13:25:18;;;;;;;7.43;6.72;;;;;;;29.54;100.00;99703.94;5053951;28;20037;-72
2023/06/19 13:27:43;;;;;;;7.68;6.82;;;;;;;29.30;100.00;99722.38;5053516;28;20081;-72
2023/06/19 13:30:09;;;;;;;7.63;6.82;;;;;;;29.38;100.00;99653.38;5037332;28;20029;-72
2023/06/19 13:32:35;;;;;;;6.97;6.38;;;;;;;30.02;100.00;99653.06;5054290;28;20036;-73
2023/06/19 13:35:00;;;;;;;8.15;6.30;;;;;;;30.93;100.00;99782.47;5054844;28;20384;-73
2023/06/19 13:37:26;;;;;;;7.15;6.50;;;;;;;31.34;100.00;99801.28;5036861;28;20051;-73
2023/06/19 13:39:51;;;;;;;8.55;6.60;;;;;;;30.83;100.00;99855.44;5055345;28;20029;-73
2023/06/19 13:42:17;;;;;;;7.35;6.45;;;;;;;29.73;100.00;99849.56;5053374;28;20025;-73
2023/06/19 13:44:42;;;;;;;7.03;6.38;;;;;;;30.30;100.00;99816.06;5054812;28;20405;-73
2023/06/19 13:47:07;;;;;;;8.05;6.50;;;;;;;29.90;100.00;99752.31;5055160;28;20027;-74
2023/06/19 13:52:55;;;;;;;6.10;5.50;;;;;;;30.21;100.00;99864.31;5055305;28;20060;-73
2023/06/19 13:55:20;;;;;;;8.10;6.40;;;;;;;30.59;100.00;99774.19;5054257;28;20064;-73
2023/06/19 13:57:46;;;;;;;7.05;6.32;;;;;;;30.16;100.00;99670.66;5054994;28;20043;-73